createdAt,value
2022-10-19T00:01:30.382Z,7.80
2022-10-19T00:03:57.432Z,15.18
2022-10-19T00:06:33.877Z,11.20
2022-10-19T00:09:04.341Z,10.48
2022-10-19T00:11:32.973Z,12.70
2022-10-19T00:14:01.441Z,11.02
2022-10-19T00:16:31.946Z,6.97
2022-10-19T00:19:00.713Z,13.57
2022-10-19T00:21:28.399Z,12.43
2022-10-19T00:23:55.840Z,9.65
2022-10-19T00:26:22.976Z,11.32
2022-10-19T00:28:49.884Z,13.68
2022-10-19T00:31:18.444Z,11.95
2022-10-19T00:33:47.206Z,14.25
2022-10-19T00:36:25.109Z,7.82
2022-10-19T00:38:53.031Z,11.05
2022-10-19T00:41:21.616Z,14.50
2022-10-19T00:43:53.521Z,9.32
2022-10-19T00:46:20.973Z,9.85
2022-10-19T00:51:16.077Z,10.95
2022-10-19T00:53:43.228Z,14.77
2022-10-19T00:56:13.519Z,7.57
2022-10-19T00:58:43.208Z,14.77
2022-10-19T01:01:14.882Z,11.52
2022-10-19T01:03:41.972Z,10.80
2022-10-19T01:06:10.211Z,9.75
2022-10-19T01:08:37.049Z,9.15
2022-10-19T01:11:14.337Z,12.98
2022-10-19T01:14:07.846Z,13.55
2022-10-19T01:16:46.300Z,13.13
2022-10-19T01:20:00.316Z,17.52
2022-10-19T01:22:49.309Z,15.98
2022-10-19T01:25:40.549Z,8.45
2022-10-19T01:28:41.782Z,11.27
2022-10-19T01:31:25.172Z,11.75
2022-10-19T01:34:14.894Z,10.10
2022-10-19T01:36:43.458Z,18.17
2022-10-19T01:39:20.913Z,11.55
2022-10-19T01:42:03.224Z,14.73
2022-10-19T01:44:50.033Z,10.10
2022-10-19T01:47:47.832Z,18.13
2022-10-19T01:50:33.723Z,7.47
2022-10-19T01:53:00.795Z,14.20
2022-10-19T01:55:28.939Z,17.92
2022-10-19T01:58:08.237Z,10.02
2022-10-19T02:00:40.003Z,10.88
2022-10-19T02:03:09.130Z,14.73
2022-10-19T02:05:38.714Z,15.98
2022-10-19T02:08:13.644Z,12.02
2022-10-19T02:10:43.541Z,15.05
2022-10-19T02:13:13.341Z,12.10
2022-10-19T02:15:44.123Z,14.98
2022-10-19T02:18:15.585Z,11.25
2022-10-19T02:20:42.501Z,13.23
2022-10-19T02:23:10.085Z,17.55
2022-10-19T02:25:37.404Z,18.00
2022-10-19T02:28:04.957Z,16.55
2022-10-19T02:30:32.029Z,12.48
2022-10-19T02:32:59.193Z,23.17
2022-10-19T02:35:27.240Z,15.27
2022-10-19T02:37:55.933Z,14.45
2022-10-19T02:40:23.921Z,14.45
2022-10-19T02:42:57.896Z,24.33
2022-10-19T02:45:31.976Z,16.17
2022-10-19T02:48:04.966Z,17.63
2022-10-19T02:50:32.273Z,13.52
2022-10-19T02:52:59.882Z,14.05
2022-10-19T02:55:26.801Z,14.38
2022-10-19T02:57:53.895Z,14.50
2022-10-19T03:00:21.135Z,17.92
2022-10-19T03:02:48.508Z,11.80
2022-10-19T03:05:15.559Z,16.98
2022-10-19T03:07:43.058Z,8.45
2022-10-19T03:10:10.314Z,13.25
2022-10-19T03:12:37.345Z,11.32
2022-10-19T03:15:04.835Z,13.38
2022-10-19T03:17:32.248Z,12.57
2022-10-19T03:19:59.477Z,9.30
2022-10-19T03:22:26.361Z,19.98
2022-10-19T03:24:53.551Z,10.23
2022-10-19T03:27:20.531Z,13.75
2022-10-19T03:29:47.523Z,17.10
2022-10-19T03:32:14.531Z,13.50
2022-10-19T03:34:41.624Z,15.07
2022-10-19T03:37:08.697Z,13.57
2022-10-19T03:39:35.723Z,13.43
2022-10-19T03:42:02.675Z,11.10
2022-10-19T03:44:29.496Z,13.38
2022-10-19T03:46:56.283Z,15.23
2022-10-19T03:49:23.228Z,16.25
2022-10-19T03:51:50.023Z,15.05
2022-10-19T03:54:17.815Z,18.75
2022-10-19T03:56:45.092Z,13.85
2022-10-19T03:59:15.202Z,11.40
2022-10-19T04:01:45.272Z,11.95
2022-10-19T04:04:16.253Z,16.38
2022-10-19T04:06:44.802Z,18.10
2022-10-19T04:09:14.462Z,20.02
2022-10-19T04:11:42.060Z,19.02
2022-10-19T04:14:19.096Z,17.33
2022-10-19T04:16:54.150Z,14.40
2022-10-19T04:19:21.141Z,14.40
2022-10-19T04:21:49.200Z,17.70
2022-10-19T04:24:18.507Z,15.70
2022-10-19T04:26:51.010Z,14.80
2022-10-19T04:29:20.227Z,15.52
2022-10-19T04:31:49.962Z,14.93
2022-10-19T04:34:17.580Z,16.25
2022-10-19T04:36:45.051Z,54.75
2022-10-19T04:39:11.990Z,22.63
2022-10-19T04:41:38.970Z,16.58
2022-10-19T04:44:06.812Z,17.60
2022-10-19T04:46:34.305Z,18.13
2022-10-19T04:49:01.587Z,18.73
2022-10-19T04:51:28.906Z,15.57
2022-10-19T04:53:59.605Z,16.67
2022-10-19T04:56:27.774Z,21.60
2022-10-19T04:58:56.980Z,22.98
2022-10-19T05:01:25.186Z,16.83
2022-10-19T05:06:24.887Z,11.55
2022-10-19T05:08:52.250Z,28.02
2022-10-19T05:11:19.828Z,20.65
2022-10-19T05:13:48.358Z,26.67
2022-10-19T05:16:21.325Z,11.02
2022-10-19T05:18:56.156Z,18.05
2022-10-19T05:21:23.245Z,17.33
2022-10-19T05:23:54.566Z,16.67
2022-10-19T05:26:27.577Z,17.92
2022-10-19T05:28:57.289Z,20.02
2022-10-19T05:31:27.288Z,22.80
2022-10-19T05:33:56.361Z,14.65
2022-10-19T05:36:26.861Z,23.95
2022-10-19T05:38:56.445Z,23.05
2022-10-19T05:41:24.859Z,24.95
2022-10-19T05:43:58.369Z,19.73
2022-10-19T05:46:26.773Z,21.92
2022-10-19T05:48:55.029Z,15.38
2022-10-19T05:51:23.095Z,15.85
2022-10-19T05:53:50.587Z,19.98
2022-10-19T05:56:22.892Z,18.08
2022-10-19T05:58:50.342Z,19.55
2022-10-19T06:01:19.514Z,13.50
2022-10-19T06:03:47.405Z,19.58
2022-10-19T06:06:14.601Z,22.05
2022-10-19T06:08:41.480Z,22.52
2022-10-19T06:11:16.943Z,21.75
2022-10-19T06:13:45.626Z,24.40
2022-10-19T06:16:14.642Z,19.38
2022-10-19T06:18:42.959Z,21.45
2022-10-19T06:21:29.700Z,24.15
2022-10-19T06:23:59.085Z,23.52
2022-10-19T06:26:26.985Z,18.52
2022-10-19T06:29:00.614Z,25.75
2022-10-19T06:31:33.239Z,19.90
2022-10-19T06:34:00.564Z,25.23
2022-10-19T06:36:29.935Z,21.23
2022-10-19T06:38:57.299Z,23.13
2022-10-19T06:41:24.550Z,29.13
2022-10-19T06:43:52.843Z,22.15
2022-10-19T06:46:23.220Z,26.23
2022-10-19T06:49:01.369Z,18.92
2022-10-19T06:51:30.342Z,23.23
2022-10-19T06:53:57.694Z,26.52
2022-10-19T06:56:26.803Z,21.15
2022-10-19T06:58:54.369Z,29.20
2022-10-19T07:01:23.135Z,25.08
2022-10-19T07:03:53.593Z,25.55
2022-10-19T07:06:21.588Z,21.67
2022-10-19T07:08:48.991Z,22.85
2022-10-19T07:11:18.710Z,24.65
2022-10-19T07:13:45.604Z,30.23
2022-10-19T07:16:17.994Z,23.20
2022-10-19T07:18:49.467Z,19.73
2022-10-19T07:21:17.168Z,33.60
2022-10-19T07:23:45.600Z,27.73
2022-10-19T07:26:23.772Z,27.35
2022-10-19T07:28:51.566Z,26.55
2022-10-19T07:31:21.094Z,26.30
2022-10-19T07:33:59.079Z,32.97
2022-10-19T07:36:26.915Z,28.42
2022-10-19T07:38:54.156Z,21.38
2022-10-19T07:41:23.443Z,25.17
2022-10-19T07:43:51.032Z,24.23
2022-10-19T07:46:25.426Z,23.23
2022-10-19T07:48:53.536Z,26.10
2022-10-19T07:51:20.867Z,19.80
2022-10-19T07:53:48.267Z,23.25
2022-10-19T07:56:20.893Z,25.70
2022-10-19T07:58:49.371Z,28.52
2022-10-19T08:01:19.617Z,24.55
2022-10-19T08:06:38.437Z,22.30
2022-10-19T08:09:06.135Z,19.52
2022-10-19T08:11:35.157Z,30.10
2022-10-19T08:14:03.219Z,21.15
2022-10-19T08:16:40.500Z,33.88
2022-10-19T08:19:13.056Z,23.15
2022-10-19T08:21:41.847Z,27.95
2022-10-19T08:24:10.165Z,20.42
2022-10-19T08:26:38.959Z,17.58
2022-10-19T08:29:12.294Z,29.25
2022-10-19T08:31:39.526Z,24.45
2022-10-19T08:34:07.282Z,17.70
2022-10-19T08:36:35.685Z,20.70
2022-10-19T08:39:05.459Z,26.27
2022-10-19T08:41:53.705Z,20.90
2022-10-19T08:44:30.330Z,17.20
2022-10-19T08:46:57.394Z,23.50
2022-10-19T08:49:27.008Z,19.42
2022-10-19T08:52:01.406Z,17.70
2022-10-19T08:54:54.413Z,21.25
2022-10-19T08:57:36.729Z,25.40
2022-10-19T09:00:13.585Z,23.10
2022-10-19T09:03:09.511Z,16.45
2022-10-19T09:05:57.938Z,20.05
2022-10-19T09:08:25.290Z,23.20
2022-10-19T09:10:54.414Z,17.17
2022-10-19T09:14:04.703Z,19.80
2022-10-19T09:16:35.077Z,21.67
2022-10-19T09:19:03.877Z,21.30
2022-10-19T09:21:47.310Z,20.05
2022-10-19T09:24:54.997Z,18.85
2022-10-19T09:27:26.710Z,25.30
2022-10-19T09:29:58.868Z,22.50
2022-10-19T09:32:39.821Z,24.75
2022-10-19T09:35:29.140Z,18.55
2022-10-19T09:37:57.476Z,19.13
2022-10-19T09:40:27.397Z,25.25
2022-10-19T09:42:58.587Z,21.90
2022-10-19T09:45:56.192Z,25.00
2022-10-19T09:48:49.158Z,23.15
2022-10-19T09:51:17.967Z,20.80
2022-10-19T09:53:55.756Z,22.90
2022-10-19T09:56:25.531Z,23.23
2022-10-19T09:58:57.580Z,22.20
2022-10-19T10:01:41.865Z,19.80
2022-10-19T10:04:16.216Z,22.52
2022-10-19T10:06:45.093Z,21.90
2022-10-19T10:09:22.293Z,21.17
2022-10-19T10:11:51.033Z,17.02
2022-10-19T10:14:23.359Z,23.08
2022-10-19T10:17:02.441Z,21.42
2022-10-19T10:19:31.403Z,22.25
2022-10-19T10:21:59.716Z,27.42
2022-10-19T10:24:32.056Z,23.92
2022-10-19T10:27:01.693Z,23.90
2022-10-19T10:29:39.138Z,20.75
2022-10-19T10:32:12.501Z,23.42
2022-10-19T10:34:51.231Z,19.55
2022-10-19T10:37:29.668Z,24.05
2022-10-19T10:40:01.766Z,24.33
2022-10-19T10:42:43.899Z,19.70
2022-10-19T10:45:29.310Z,24.23
2022-10-19T10:47:58.250Z,25.27
2022-10-19T10:50:32.998Z,26.90
2022-10-19T10:53:04.699Z,21.27
2022-10-19T10:55:33.070Z,24.10
2022-10-19T10:58:25.508Z,22.10
2022-10-19T11:00:56.122Z,19.63
2022-10-19T11:03:31.976Z,23.05
2022-10-19T11:06:00.844Z,22.80
2022-10-19T11:08:31.839Z,22.67
2022-10-19T11:11:14.119Z,24.85
2022-10-19T11:13:50.595Z,21.42
2022-10-19T11:16:21.904Z,24.98
2022-10-19T11:22:07.052Z,26.38
2022-10-19T11:25:03.215Z,27.50
2022-10-19T11:27:57.520Z,22.75
2022-10-19T11:30:26.582Z,28.88
2022-10-19T11:32:56.152Z,20.08
2022-10-19T11:35:45.609Z,25.65
2022-10-19T11:38:20.683Z,25.67
2022-10-19T11:41:26.950Z,24.63
2022-10-19T11:44:12.492Z,20.23
2022-10-19T11:46:46.869Z,20.67
2022-10-19T11:49:54.445Z,23.42
2022-10-19T11:52:37.224Z,18.52
2022-10-19T11:55:28.417Z,22.10
2022-10-19T11:58:13.693Z,21.95
2022-10-19T12:00:50.110Z,21.90
2022-10-19T12:03:37.853Z,24.25
2022-10-19T12:06:36.195Z,18.27
2022-10-19T12:09:15.460Z,26.77
2022-10-19T12:12:06.156Z,22.58
2022-10-19T12:14:38.898Z,22.65
2022-10-19T12:17:15.029Z,18.23
2022-10-19T12:19:51.001Z,20.75
2022-10-19T12:22:23.974Z,28.30
2022-10-19T12:24:53.363Z,19.50
2022-10-19T12:27:32.093Z,21.98
2022-10-19T12:30:08.242Z,23.63
2022-10-19T12:32:53.470Z,17.45
2022-10-19T12:35:43.580Z,15.27
2022-10-19T12:38:44.025Z,23.98
2022-10-19T12:41:29.511Z,20.30
2022-10-19T12:44:33.742Z,18.48
2022-10-19T12:47:11.019Z,22.52
2022-10-19T12:49:45.505Z,17.85
2022-10-19T12:52:14.111Z,26.83
2022-10-19T12:54:44.238Z,22.30
2022-10-19T12:57:30.999Z,19.73
2022-10-19T13:00:23.499Z,24.70
2022-10-19T13:03:07.937Z,18.90
2022-10-19T13:05:36.730Z,24.67
2022-10-19T13:08:08.073Z,32.30
2022-10-19T13:10:37.942Z,16.60
2022-10-19T13:13:05.118Z,17.58
2022-10-19T13:15:38.331Z,18.65
2022-10-19T13:18:17.280Z,19.40
2022-10-19T13:20:54.050Z,22.27
2022-10-19T13:23:27.208Z,25.13
2022-10-19T13:26:34.687Z,29.55
2022-10-19T13:29:01.686Z,20.45
2022-10-19T13:31:31.410Z,17.58
2022-10-19T13:33:58.815Z,18.25
2022-10-19T13:36:26.551Z,15.88
2022-10-19T13:38:59.615Z,17.30
2022-10-19T13:41:28.473Z,22.50
2022-10-19T13:44:15.333Z,18.30
2022-10-19T13:47:07.215Z,17.15
2022-10-19T13:49:55.777Z,21.30
2022-10-19T13:52:40.738Z,20.33
2022-10-19T13:55:47.317Z,19.33
2022-10-19T13:58:27.126Z,19.52
2022-10-19T14:01:03.304Z,17.63
2022-10-19T14:03:48.445Z,16.13
2022-10-19T14:06:47.478Z,25.02
2022-10-19T14:09:52.231Z,20.13
2022-10-19T14:12:28.141Z,18.85
2022-10-19T14:14:55.285Z,19.80
2022-10-19T14:17:30.284Z,21.30
2022-10-19T14:19:59.341Z,21.45
2022-10-19T14:22:36.618Z,19.73
2022-10-19T14:25:07.520Z,20.83
2022-10-19T14:27:35.750Z,18.05
2022-10-19T14:30:04.324Z,20.40
2022-10-19T14:32:35.116Z,27.23
2022-10-19T14:35:17.559Z,24.17
2022-10-19T14:37:45.116Z,23.55
2022-10-19T14:40:28.916Z,19.05
2022-10-19T14:42:57.712Z,26.30
2022-10-19T14:45:24.823Z,22.30
2022-10-19T14:48:01.168Z,15.70
2022-10-19T14:50:42.207Z,23.13
2022-10-19T14:53:37.379Z,16.40
2022-10-19T14:56:28.138Z,18.25
2022-10-19T14:59:12.474Z,22.70
2022-10-19T15:01:41.045Z,20.05
2022-10-19T15:04:08.542Z,23.30
2022-10-19T15:06:36.243Z,17.63
2022-10-19T15:09:12.085Z,19.33
2022-10-19T15:11:49.896Z,21.73
2022-10-19T15:14:22.090Z,19.00
2022-10-19T15:17:00.574Z,17.30
2022-10-19T15:19:41.266Z,22.15
2022-10-19T15:22:21.725Z,17.75
2022-10-19T15:24:59.551Z,26.35
2022-10-19T15:27:50.092Z,23.17
2022-10-19T15:30:23.126Z,18.95
2022-10-19T15:32:52.731Z,19.35
2022-10-19T15:35:37.286Z,21.80
2022-10-19T15:38:10.179Z,22.33
2022-10-19T15:40:40.062Z,19.48
2022-10-19T15:43:35.465Z,16.92
2022-10-19T15:46:29.033Z,17.50
2022-10-19T15:48:58.135Z,15.68
2022-10-19T15:51:29.622Z,18.92
2022-10-19T15:54:01.019Z,22.38
2022-10-19T15:56:30.347Z,18.60
2022-10-19T15:58:59.226Z,21.83
2022-10-19T16:01:32.409Z,23.02
2022-10-19T16:04:00.174Z,19.65
2022-10-19T16:06:30.717Z,16.33
2022-10-19T16:08:58.838Z,21.55
2022-10-19T16:11:26.218Z,22.58
2022-10-19T16:13:55.671Z,18.30
2022-10-19T16:16:29.753Z,22.23
2022-10-19T16:18:57.144Z,17.58
2022-10-19T16:21:28.509Z,28.95
2022-10-19T16:23:56.241Z,17.77
2022-10-19T16:26:27.180Z,20.40
2022-10-19T16:28:55.572Z,18.80
2022-10-19T16:31:23.881Z,24.30
2022-10-19T16:33:51.179Z,20.88
2022-10-19T16:36:20.451Z,18.42
2022-10-19T16:38:48.244Z,25.10
2022-10-19T16:41:16.049Z,21.58
2022-10-19T16:43:43.273Z,17.90
2022-10-19T16:46:10.469Z,23.98
2022-10-19T16:48:38.363Z,22.65
2022-10-19T16:51:10.368Z,24.52
2022-10-19T16:53:38.526Z,19.95
2022-10-19T16:56:07.827Z,21.30
2022-10-19T16:58:37.130Z,23.52
2022-10-19T17:01:09.975Z,29.10
2022-10-19T17:03:37.383Z,21.88
2022-10-19T17:06:06.321Z,23.30
2022-10-19T17:08:36.916Z,22.23
2022-10-19T17:11:27.345Z,24.98
2022-10-19T17:13:57.846Z,24.17
2022-10-19T17:16:27.253Z,21.95
2022-10-19T17:18:59.157Z,20.67
2022-10-19T17:21:28.981Z,19.75
2022-10-19T17:23:57.936Z,24.15
2022-10-19T17:26:30.831Z,26.25
2022-10-19T17:28:58.671Z,25.77
2022-10-19T17:31:26.777Z,21.80
2022-10-19T17:33:54.735Z,21.17
2022-10-19T17:36:28.338Z,22.40
2022-10-19T17:38:57.781Z,26.35
2022-10-19T17:41:25.650Z,20.67
2022-10-19T17:43:53.244Z,20.80
2022-10-19T17:46:23.234Z,22.25
2022-10-19T17:48:50.417Z,29.55
2022-10-19T17:51:23.819Z,24.45
2022-10-19T17:53:52.065Z,21.90
2022-10-19T17:56:20.697Z,23.85
2022-10-19T17:58:48.622Z,25.40
2022-10-19T18:01:20.190Z,22.70
2022-10-19T18:03:47.769Z,29.17
2022-10-19T18:06:24.188Z,31.92
2022-10-19T18:08:56.496Z,29.73
2022-10-19T18:11:26.661Z,27.67
2022-10-19T18:13:57.602Z,30.33
2022-10-19T18:16:36.585Z,30.85
2022-10-19T18:19:04.712Z,29.40
2022-10-19T18:21:35.041Z,29.27
2022-10-19T18:24:03.952Z,25.25
2022-10-19T18:26:32.716Z,29.25
2022-10-19T18:29:01.996Z,30.27
2022-10-19T18:31:31.597Z,30.50
2022-10-19T18:34:04.398Z,34.90
2022-10-19T18:36:32.754Z,31.13
2022-10-19T18:39:01.777Z,29.58
2022-10-19T18:41:30.001Z,30.25
2022-10-19T18:44:03.264Z,29.63
2022-10-19T18:46:30.838Z,28.77
2022-10-19T18:48:57.924Z,30.58
2022-10-19T18:51:24.965Z,31.10
2022-10-19T18:53:52.078Z,34.30
2022-10-19T18:56:21.667Z,38.63
2022-10-19T18:58:49.312Z,32.75
2022-10-19T19:01:19.289Z,34.35
2022-10-19T19:03:49.740Z,31.65
2022-10-19T19:06:29.672Z,29.08
2022-10-19T19:08:58.036Z,31.77
2022-10-19T19:11:30.599Z,32.53
2022-10-19T19:14:03.035Z,32.83
2022-10-19T19:16:33.941Z,30.30
2022-10-19T19:19:00.976Z,29.15
2022-10-19T19:21:30.205Z,31.42
2022-10-19T19:24:00.421Z,31.80
2022-10-19T19:26:31.332Z,27.73
2022-10-19T19:28:58.560Z,29.42
2022-10-19T19:31:26.568Z,27.15
2022-10-19T19:33:53.705Z,31.65
2022-10-19T19:36:20.919Z,28.98
2022-10-19T19:38:50.636Z,27.48
2022-10-19T19:41:18.254Z,34.17
2022-10-19T19:43:45.236Z,31.52
2022-10-19T19:46:17.468Z,36.47
2022-10-19T19:48:47.176Z,32.88
2022-10-19T19:51:20.514Z,31.38
2022-10-19T19:53:48.428Z,29.83
2022-10-19T19:56:16.778Z,34.20
2022-10-19T19:58:45.018Z,31.48
2022-10-19T20:01:14.316Z,35.35
2022-10-19T20:03:41.782Z,34.42
2022-10-19T20:06:10.898Z,32.97
2022-10-19T20:08:38.689Z,29.35
2022-10-19T20:11:14.215Z,30.90
2022-10-19T20:13:41.286Z,30.42
2022-10-19T20:16:15.731Z,31.52
2022-10-19T20:18:46.366Z,30.80
2022-10-19T20:21:13.812Z,30.85
2022-10-19T20:23:43.618Z,30.52
2022-10-19T20:26:18.933Z,27.08
2022-10-19T20:28:46.252Z,36.33
2022-10-19T20:31:13.872Z,26.30
2022-10-19T20:33:42.885Z,26.73
2022-10-19T20:36:12.966Z,25.80
2022-10-19T20:38:40.849Z,31.50
2022-10-19T20:41:09.895Z,31.98
2022-10-19T20:43:37.990Z,29.67
2022-10-19T20:46:07.333Z,28.33
2022-10-19T20:48:35.197Z,26.95
2022-10-19T20:51:20.167Z,28.90
2022-10-19T20:53:49.723Z,24.60
2022-10-19T20:56:21.424Z,28.95
2022-10-19T20:58:50.729Z,25.33
2022-10-19T21:01:19.701Z,26.13
2022-10-19T21:03:49.037Z,31.33
2022-10-19T21:06:16.358Z,31.75
2022-10-19T21:08:43.441Z,26.10
2022-10-19T21:11:19.241Z,27.35
2022-10-19T21:13:46.923Z,27.65
2022-10-19T21:16:19.028Z,23.23
2022-10-19T21:18:47.978Z,29.95
2022-10-19T21:21:28.540Z,28.75
2022-10-19T21:24:01.688Z,27.05
2022-10-19T21:26:28.936Z,29.23
2022-10-19T21:28:56.089Z,30.13
2022-10-19T21:31:25.670Z,24.17
2022-10-19T21:33:53.605Z,30.25
2022-10-19T21:36:22.162Z,28.92
2022-10-19T21:38:49.921Z,28.45
2022-10-19T21:41:25.348Z,29.83
2022-10-19T21:43:54.095Z,27.90
2022-10-19T21:46:22.839Z,29.75
2022-10-19T21:48:50.673Z,33.55
2022-10-19T21:51:36.408Z,29.85
2022-10-19T21:54:04.989Z,29.00
2022-10-19T21:56:32.766Z,31.80
2022-10-19T21:58:59.808Z,30.08
2022-10-19T22:01:28.790Z,24.58
2022-10-19T22:04:02.065Z,28.92
2022-10-19T22:06:31.088Z,29.83
2022-10-19T22:08:58.886Z,30.08
2022-10-19T22:11:26.957Z,28.40
2022-10-19T22:14:00.167Z,24.75
2022-10-19T22:16:29.139Z,24.42
2022-10-19T22:18:56.436Z,24.75
2022-10-19T22:21:29.398Z,26.95
2022-10-19T22:24:01.998Z,23.83
2022-10-19T22:26:32.144Z,23.55
2022-10-19T22:29:00.517Z,23.17
2022-10-19T22:31:29.060Z,24.02
2022-10-19T22:33:56.360Z,24.92
2022-10-19T22:36:23.366Z,21.40
2022-10-19T22:38:50.650Z,25.45
2022-10-19T22:42:13.596Z,23.33
2022-10-19T22:45:08.566Z,26.88
2022-10-19T22:47:35.493Z,25.10
2022-10-19T22:50:02.736Z,22.98
2022-10-19T22:52:29.728Z,25.30
2022-10-19T22:54:56.921Z,24.33
2022-10-19T22:57:24.412Z,24.92
2022-10-19T22:59:51.499Z,21.58
2022-10-19T23:02:18.541Z,24.50
2022-10-19T23:04:45.747Z,22.50
2022-10-19T23:07:13.091Z,23.25
2022-10-19T23:09:40.436Z,19.63
2022-10-19T23:12:07.581Z,22.83
2022-10-19T23:14:35.583Z,22.73
2022-10-19T23:17:02.675Z,25.70
2022-10-19T23:19:29.783Z,19.15
2022-10-19T23:21:56.856Z,21.20
2022-10-19T23:24:24.051Z,22.70
2022-10-19T23:26:53.164Z,23.13
2022-10-19T23:29:20.381Z,19.45
2022-10-19T23:31:48.431Z,19.38
2022-10-19T23:34:15.541Z,19.52
2022-10-19T23:36:42.592Z,25.92
2022-10-19T23:39:09.780Z,19.25
2022-10-19T23:41:37.062Z,18.13
2022-10-19T23:44:05.032Z,20.98
2022-10-19T23:46:32.127Z,21.35
2022-10-19T23:48:58.955Z,23.67
2022-10-19T23:51:25.890Z,20.75
2022-10-19T23:53:53.422Z,22.63
2022-10-19T23:56:22.961Z,18.90
2022-10-19T23:58:50.960Z,25.83
